sensor_id;sensor_type;location;lat;lon;timestamp;temperature;humidity
30399;DHT22;17195;50.838;7.214;2023-05-23T00:01:55;15.60;99.90
30399;DHT22;17195;50.838;7.214;2023-05-23T00:04:23;15.60;99.90
30399;DHT22;17195;50.838;7.214;2023-05-23T00:06:51;15.50;99.90
30399;DHT22;17195;50.838;7.214;2023-05-23T00:09:25;15.50;99.90
30399;DHT22;17195;50.838;7.214;2023-05-23T00:11:51;15.40;99.90
30399;DHT22;17195;50.838;7.214;2023-05-23T00:14:16;15.40;99.90
30399;DHT22;17195;50.838;7.214;2023-05-23T00:16:43;15.40;99.90
30399;DHT22;17195;50.838;7.214;2023-05-23T00:19:10;15.30;99.90
30399;DHT22;17195;50.838;7.214;2023-05-23T00:21:39;15.40;99.90
30399;DHT22;17195;50.838;7.214;2023-05-23T00:24:05;15.30;99.90
30399;DHT22;17195;50.838;7.214;2023-05-23T00:26:31;15.20;99.90
30399;DHT22;17195;50.838;7.214;2023-05-23T00:28:57;15.30;99.90
30399;DHT22;17195;50.838;7.214;2023-05-23T00:31:22;15.30;99.90
30399;DHT22;17195;50.838;7.214;2023-05-23T00:33:48;15.30;99.90
30399;DHT22;17195;50.838;7.214;2023-05-23T00:36:14;15.20;99.90
30399;DHT22;17195;50.838;7.214;2023-05-23T00:38:39;15.20;99.90
30399;DHT22;17195;50.838;7.214;2023-05-23T00:41:05;15.20;99.90
30399;DHT22;17195;50.838;7.214;2023-05-23T00:43:31;15.20;99.90
30399;DHT22;17195;50.838;7.214;2023-05-23T00:45:57;15.00;99.90
30399;DHT22;17195;50.838;7.214;2023-05-23T00:48:24;15.00;99.90
30399;DHT22;17195;50.838;7.214;2023-05-23T00:50:51;14.90;99.90
30399;DHT22;17195;50.838;7.214;2023-05-23T00:53:16;14.90;99.90
30399;DHT22;17195;50.838;7.214;2023-05-23T00:55:43;14.90;99.90
30399;DHT22;17195;50.838;7.214;2023-05-23T00:58:09;14.80;99.90
30399;DHT22;17195;50.838;7.214;2023-05-23T01:00:35;14.80;99.90
30399;DHT22;17195;50.838;7.214;2023-05-23T01:03:03;14.80;99.90
30399;DHT22;17195;50.838;7.214;2023-05-23T01:05:29;14.80;99.90
30399;DHT22;17195;50.838;7.214;2023-05-23T01:07:55;14.80;99.90
30399;DHT22;17195;50.838;7.214;2023-05-23T01:10:26;14.80;99.90
30399;DHT22;17195;50.838;7.214;2023-05-23T01:15:37;14.70;99.90
30399;DHT22;17195;50.838;7.214;2023-05-23T01:18:17;14.70;99.90
30399;DHT22;17195;50.838;7.214;2023-05-23T01:20:58;14.60;99.90
30399;DHT22;17195;50.838;7.214;2023-05-23T01:28:49;14.60;99.90
30399;DHT22;17195;50.838;7.214;2023-05-23T01:31:17;14.60;99.90
30399;DHT22;17195;50.838;7.214;2023-05-23T01:33:43;14.80;99.90
30399;DHT22;17195;50.838;7.214;2023-05-23T01:36:12;14.80;99.90
30399;DHT22;17195;50.838;7.214;2023-05-23T01:38:38;14.90;99.90
30399;DHT22;17195;50.838;7.214;2023-05-23T01:41:03;15.00;99.90
30399;DHT22;17195;50.838;7.214;2023-05-23T01:43:29;15.10;99.90
30399;DHT22;17195;50.838;7.214;2023-05-23T01:45:55;15.10;99.90
30399;DHT22;17195;50.838;7.214;2023-05-23T01:48:22;15.20;99.90
30399;DHT22;17195;50.838;7.214;2023-05-23T01:50:49;15.20;99.90
30399;DHT22;17195;50.838;7.214;2023-05-23T01:53:20;15.20;99.90
30399;DHT22;17195;50.838;7.214;2023-05-23T01:55:47;15.20;99.90
30399;DHT22;17195;50.838;7.214;2023-05-23T01:58:13;15.30;99.90
30399;DHT22;17195;50.838;7.214;2023-05-23T02:00:38;15.30;99.90
30399;DHT22;17195;50.838;7.214;2023-05-23T02:03:04;15.50;99.90
30399;DHT22;17195;50.838;7.214;2023-05-23T02:05:30;15.40;99.90
30399;DHT22;17195;50.838;7.214;2023-05-23T02:07:55;15.40;99.90
30399;DHT22;17195;50.838;7.214;2023-05-23T02:10:21;15.40;99.90
30399;DHT22;17195;50.838;7.214;2023-05-23T02:12:47;15.40;99.90
30399;DHT22;17195;50.838;7.214;2023-05-23T02:15:12;15.40;99.90
30399;DHT22;17195;50.838;7.214;2023-05-23T02:17:38;15.40;99.90
30399;DHT22;17195;50.838;7.214;2023-05-23T02:20:05;15.50;99.90
30399;DHT22;17195;50.838;7.214;2023-05-23T02:22:30;15.40;99.90
30399;DHT22;17195;50.838;7.214;2023-05-23T02:24:56;15.40;99.90
30399;DHT22;17195;50.838;7.214;2023-05-23T02:27:22;15.40;99.90
30399;DHT22;17195;50.838;7.214;2023-05-23T02:29:47;15.40;99.90
30399;DHT22;17195;50.838;7.214;2023-05-23T02:32:13;15.40;99.90
30399;DHT22;17195;50.838;7.214;2023-05-23T02:34:38;15.40;99.90
30399;DHT22;17195;50.838;7.214;2023-05-23T02:37:04;15.40;99.90
30399;DHT22;17195;50.838;7.214;2023-05-23T02:39:30;15.30;99.90
30399;DHT22;17195;50.838;7.214;2023-05-23T02:41:55;15.20;99.90
30399;DHT22;17195;50.838;7.214;2023-05-23T02:44:21;15.20;99.90
30399;DHT22;17195;50.838;7.214;2023-05-23T02:46:47;15.20;99.90
30399;DHT22;17195;50.838;7.214;2023-05-23T02:49:12;15.20;99.90
30399;DHT22;17195;50.838;7.214;2023-05-23T02:51:38;15.10;99.90
30399;DHT22;17195;50.838;7.214;2023-05-23T02:54:03;15.20;99.90
30399;DHT22;17195;50.838;7.214;2023-05-23T02:56:29;15.30;99.90
30399;DHT22;17195;50.838;7.214;2023-05-23T02:58:55;15.20;99.90
30399;DHT22;17195;50.838;7.214;2023-05-23T03:01:20;15.20;99.90
30399;DHT22;17195;50.838;7.214;2023-05-23T03:03:46;15.20;99.90
30399;DHT22;17195;50.838;7.214;2023-05-23T03:06:11;15.30;99.90
30399;DHT22;17195;50.838;7.214;2023-05-23T03:08:40;15.20;99.90
30399;DHT22;17195;50.838;7.214;2023-05-23T03:11:05;15.20;99.90
30399;DHT22;17195;50.838;7.214;2023-05-23T03:13:31;15.20;99.90
30399;DHT22;17195;50.838;7.214;2023-05-23T03:15:57;15.20;99.90
30399;DHT22;17195;50.838;7.214;2023-05-23T03:18:22;15.20;99.90
30399;DHT22;17195;50.838;7.214;2023-05-23T03:20:48;15.20;99.90
30399;DHT22;17195;50.838;7.214;2023-05-23T03:23:13;15.20;99.90
30399;DHT22;17195;50.838;7.214;2023-05-23T03:25:39;15.20;99.90
30399;DHT22;17195;50.838;7.214;2023-05-23T03:28:04;15.20;99.90
30399;DHT22;17195;50.838;7.214;2023-05-23T03:30:30;15.30;99.90
30399;DHT22;17195;50.838;7.214;2023-05-23T03:32:56;15.30;99.90
30399;DHT22;17195;50.838;7.214;2023-05-23T03:35:21;15.30;99.90
30399;DHT22;17195;50.838;7.214;2023-05-23T03:37:47;15.30;99.90
30399;DHT22;17195;50.838;7.214;2023-05-23T03:40:12;15.30;99.90
30399;DHT22;17195;50.838;7.214;2023-05-23T03:42:38;15.30;99.90
30399;DHT22;17195;50.838;7.214;2023-05-23T03:45:04;15.30;99.90
30399;DHT22;17195;50.838;7.214;2023-05-23T03:47:30;15.30;99.90
30399;DHT22;17195;50.838;7.214;2023-05-23T03:49:56;15.40;99.90
30399;DHT22;17195;50.838;7.214;2023-05-23T03:52:22;15.30;99.90
30399;DHT22;17195;50.838;7.214;2023-05-23T03:54:47;15.30;99.90
30399;DHT22;17195;50.838;7.214;2023-05-23T03:57:13;15.30;99.90
30399;DHT22;17195;50.838;7.214;2023-05-23T03:59:39;15.30;99.90
30399;DHT22;17195;50.838;7.214;2023-05-23T04:02:04;15.20;99.90
30399;DHT22;17195;50.838;7.214;2023-05-23T04:04:30;15.30;99.90
30399;DHT22;17195;50.838;7.214;2023-05-23T04:06:56;15.10;99.90
30399;DHT22;17195;50.838;7.214;2023-05-23T04:09:22;15.10;99.90
30399;DHT22;17195;50.838;7.214;2023-05-23T04:11:48;15.10;99.90
30399;DHT22;17195;50.838;7.214;2023-05-23T04:14:14;15.10;99.90
30399;DHT22;17195;50.838;7.214;2023-05-23T04:16:39;15.10;99.90
30399;DHT22;17195;50.838;7.214;2023-05-23T04:19:09;15.10;99.90
30399;DHT22;17195;50.838;7.214;2023-05-23T04:21:35;15.00;99.90
30399;DHT22;17195;50.838;7.214;2023-05-23T04:24:00;15.00;99.90
30399;DHT22;17195;50.838;7.214;2023-05-23T04:26:27;14.90;99.90
30399;DHT22;17195;50.838;7.214;2023-05-23T04:28:53;14.80;99.90
30399;DHT22;17195;50.838;7.214;2023-05-23T04:31:21;14.80;99.90
30399;DHT22;17195;50.838;7.214;2023-05-23T04:33:47;14.70;99.90
30399;DHT22;17195;50.838;7.214;2023-05-23T04:36:13;14.70;99.90
30399;DHT22;17195;50.838;7.214;2023-05-23T04:38:39;14.60;99.90
30399;DHT22;17195;50.838;7.214;2023-05-23T04:41:06;14.60;99.90
30399;DHT22;17195;50.838;7.214;2023-05-23T04:43:32;14.60;99.90
30399;DHT22;17195;50.838;7.214;2023-05-23T04:45:59;14.70;99.90
30399;DHT22;17195;50.838;7.214;2023-05-23T04:48:24;14.60;99.90
30399;DHT22;17195;50.838;7.214;2023-05-23T04:50:52;14.70;99.90
30399;DHT22;17195;50.838;7.214;2023-05-23T04:53:17;14.70;99.90
30399;DHT22;17195;50.838;7.214;2023-05-23T04:55:43;14.60;99.90
30399;DHT22;17195;50.838;7.214;2023-05-23T04:58:09;14.60;99.90
30399;DHT22;17195;50.838;7.214;2023-05-23T05:00:34;14.60;99.90
30399;DHT22;17195;50.838;7.214;2023-05-23T05:03:00;14.70;99.90
30399;DHT22;17195;50.838;7.214;2023-05-23T05:05:26;14.70;99.90
30399;DHT22;17195;50.838;7.214;2023-05-23T05:07:51;14.70;99.90
30399;DHT22;17195;50.838;7.214;2023-05-23T05:10:18;14.70;99.90
30399;DHT22;17195;50.838;7.214;2023-05-23T05:12:45;14.90;99.90
30399;DHT22;17195;50.838;7.214;2023-05-23T05:15:11;14.80;99.90
30399;DHT22;17195;50.838;7.214;2023-05-23T05:17:38;14.80;99.90
30399;DHT22;17195;50.838;7.214;2023-05-23T05:20:04;14.90;99.90
30399;DHT22;17195;50.838;7.214;2023-05-23T05:22:42;14.80;99.90
30399;DHT22;17195;50.838;7.214;2023-05-23T05:25:09;14.80;99.90
30399;DHT22;17195;50.838;7.214;2023-05-23T05:27:35;14.80;99.90
30399;DHT22;17195;50.838;7.214;2023-05-23T05:30:05;14.70;99.90
30399;DHT22;17195;50.838;7.214;2023-05-23T05:32:32;14.70;99.90
30399;DHT22;17195;50.838;7.214;2023-05-23T05:34:59;14.70;99.90
30399;DHT22;17195;50.838;7.214;2023-05-23T05:37:24;14.60;99.90
30399;DHT22;17195;50.838;7.214;2023-05-23T05:39:51;14.70;99.90
30399;DHT22;17195;50.838;7.214;2023-05-23T05:42:17;14.50;99.90
30399;DHT22;17195;50.838;7.214;2023-05-23T05:44:43;14.50;99.90
30399;DHT22;17195;50.838;7.214;2023-05-23T05:47:08;14.60;99.90
30399;DHT22;17195;50.838;7.214;2023-05-23T05:49:35;14.70;99.90
30399;DHT22;17195;50.838;7.214;2023-05-23T05:52:01;14.60;99.90
30399;DHT22;17195;50.838;7.214;2023-05-23T05:54:26;14.60;99.90
30399;DHT22;17195;50.838;7.214;2023-05-23T05:56:53;14.60;99.90
30399;DHT22;17195;50.838;7.214;2023-05-23T05:59:18;14.60;99.90
30399;DHT22;17195;50.838;7.214;2023-05-23T06:01:44;14.50;99.90
30399;DHT22;17195;50.838;7.214;2023-05-23T06:04:10;14.60;99.90
30399;DHT22;17195;50.838;7.214;2023-05-23T06:06:36;14.70;99.90
30399;DHT22;17195;50.838;7.214;2023-05-23T06:09:01;14.80;99.90
30399;DHT22;17195;50.838;7.214;2023-05-23T06:11:27;14.80;99.90
30399;DHT22;17195;50.838;7.214;2023-05-23T06:13:52;14.80;99.90
30399;DHT22;17195;50.838;7.214;2023-05-23T06:16:18;14.80;99.90
30399;DHT22;17195;50.838;7.214;2023-05-23T06:18:43;14.80;99.90
30399;DHT22;17195;50.838;7.214;2023-05-23T06:21:09;14.90;99.90
30399;DHT22;17195;50.838;7.214;2023-05-23T06:23:35;14.90;99.90
30399;DHT22;17195;50.838;7.214;2023-05-23T06:26:00;15.00;99.90
30399;DHT22;17195;50.838;7.214;2023-05-23T06:28:26;14.90;99.90
30399;DHT22;17195;50.838;7.214;2023-05-23T06:30:52;14.90;99.90
30399;DHT22;17195;50.838;7.214;2023-05-23T06:33:17;14.90;99.90
30399;DHT22;17195;50.838;7.214;2023-05-23T06:35:43;14.80;99.90
30399;DHT22;17195;50.838;7.214;2023-05-23T06:38:08;14.80;99.90
30399;DHT22;17195;50.838;7.214;2023-05-23T06:40:34;14.90;99.90
30399;DHT22;17195;50.838;7.214;2023-05-23T06:42:59;14.80;99.90
30399;DHT22;17195;50.838;7.214;2023-05-23T06:45:25;14.80;99.90
30399;DHT22;17195;50.838;7.214;2023-05-23T06:47:51;14.80;99.90
30399;DHT22;17195;50.838;7.214;2023-05-23T06:50:17;14.80;99.90
30399;DHT22;17195;50.838;7.214;2023-05-23T06:52:46;14.80;99.90
30399;DHT22;17195;50.838;7.214;2023-05-23T06:55:11;14.80;99.90
30399;DHT22;17195;50.838;7.214;2023-05-23T06:57:42;14.80;99.90
30399;DHT22;17195;50.838;7.214;2023-05-23T07:00:09;14.80;99.90
30399;DHT22;17195;50.838;7.214;2023-05-23T07:02:35;14.80;99.90
30399;DHT22;17195;50.838;7.214;2023-05-23T07:05:01;14.80;99.90
30399;DHT22;17195;50.838;7.214;2023-05-23T07:07:26;14.90;99.90
30399;DHT22;17195;50.838;7.214;2023-05-23T07:09:52;14.80;99.90
30399;DHT22;17195;50.838;7.214;2023-05-23T07:12:18;14.90;99.90
30399;DHT22;17195;50.838;7.214;2023-05-23T07:14:43;14.90;99.90
30399;DHT22;17195;50.838;7.214;2023-05-23T07:17:09;14.90;99.90
30399;DHT22;17195;50.838;7.214;2023-05-23T07:19:34;14.90;99.90
30399;DHT22;17195;50.838;7.214;2023-05-23T07:22:00;14.90;99.90
30399;DHT22;17195;50.838;7.214;2023-05-23T07:24:25;14.90;99.90
30399;DHT22;17195;50.838;7.214;2023-05-23T07:26:51;14.90;99.90
30399;DHT22;17195;50.838;7.214;2023-05-23T07:29:17;15.00;99.90
30399;DHT22;17195;50.838;7.214;2023-05-23T07:31:42;15.10;99.90
30399;DHT22;17195;50.838;7.214;2023-05-23T07:34:08;15.10;99.90
30399;DHT22;17195;50.838;7.214;2023-05-23T07:36:33;15.20;99.90
30399;DHT22;17195;50.838;7.214;2023-05-23T07:39:00;15.10;99.90
30399;DHT22;17195;50.838;7.214;2023-05-23T07:41:26;15.10;99.90
30399;DHT22;17195;50.838;7.214;2023-05-23T07:43:51;15.10;99.90
30399;DHT22;17195;50.838;7.214;2023-05-23T07:46:17;15.10;99.90
30399;DHT22;17195;50.838;7.214;2023-05-23T07:48:43;15.00;99.90
30399;DHT22;17195;50.838;7.214;2023-05-23T07:51:08;15.00;99.90
30399;DHT22;17195;50.838;7.214;2023-05-23T07:53:35;15.00;99.90
30399;DHT22;17195;50.838;7.214;2023-05-23T07:56:04;14.90;99.90
30399;DHT22;17195;50.838;7.214;2023-05-23T07:58:30;15.10;99.90
30399;DHT22;17195;50.838;7.214;2023-05-23T08:00:56;15.10;99.90
30399;DHT22;17195;50.838;7.214;2023-05-23T08:03:22;15.20;99.90
30399;DHT22;17195;50.838;7.214;2023-05-23T08:05:48;15.30;99.90
30399;DHT22;17195;50.838;7.214;2023-05-23T08:08:14;15.30;99.90
30399;DHT22;17195;50.838;7.214;2023-05-23T08:10:40;15.50;99.90
30399;DHT22;17195;50.838;7.214;2023-05-23T08:13:08;15.50;99.90
30399;DHT22;17195;50.838;7.214;2023-05-23T08:15:34;15.60;99.90
30399;DHT22;17195;50.838;7.214;2023-05-23T08:17:59;15.40;99.90
30399;DHT22;17195;50.838;7.214;2023-05-23T08:20:26;15.40;99.90
30399;DHT22;17195;50.838;7.214;2023-05-23T08:22:59;15.40;99.90
30399;DHT22;17195;50.838;7.214;2023-05-23T08:25:26;15.40;99.90
30399;DHT22;17195;50.838;7.214;2023-05-23T08:27:55;15.50;99.90
30399;DHT22;17195;50.838;7.214;2023-05-23T08:30:23;15.50;99.90
30399;DHT22;17195;50.838;7.214;2023-05-23T08:33:06;15.60;99.90
30399;DHT22;17195;50.838;7.214;2023-05-23T08:35:32;15.60;99.90
30399;DHT22;17195;50.838;7.214;2023-05-23T08:38:01;15.60;99.90
30399;DHT22;17195;50.838;7.214;2023-05-23T08:40:30;15.70;99.90
30399;DHT22;17195;50.838;7.214;2023-05-23T08:42:56;15.60;99.90
30399;DHT22;17195;50.838;7.214;2023-05-23T08:45:22;15.80;99.90
30399;DHT22;17195;50.838;7.214;2023-05-23T08:47:50;15.90;99.90
30399;DHT22;17195;50.838;7.214;2023-05-23T08:50:17;16.00;99.90
30399;DHT22;17195;50.838;7.214;2023-05-23T08:52:53;16.30;99.90
30399;DHT22;17195;50.838;7.214;2023-05-23T08:55:24;16.20;99.90
30399;DHT22;17195;50.838;7.214;2023-05-23T08:58:02;16.10;99.90
30399;DHT22;17195;50.838;7.214;2023-05-23T09:00:28;16.10;99.90
30399;DHT22;17195;50.838;7.214;2023-05-23T09:02:54;16.10;99.90
30399;DHT22;17195;50.838;7.214;2023-05-23T09:05:21;16.00;99.90
30399;DHT22;17195;50.838;7.214;2023-05-23T09:07:48;15.90;99.90
30399;DHT22;17195;50.838;7.214;2023-05-23T09:10:15;15.90;99.90
30399;DHT22;17195;50.838;7.214;2023-05-23T09:12:47;15.90;99.90
30399;DHT22;17195;50.838;7.214;2023-05-23T09:15:12;15.60;99.90
30399;DHT22;17195;50.838;7.214;2023-05-23T09:17:38;15.60;99.90
30399;DHT22;17195;50.838;7.214;2023-05-23T09:20:12;15.40;99.90
30399;DHT22;17195;50.838;7.214;2023-05-23T09:22:38;15.50;99.90
30399;DHT22;17195;50.838;7.214;2023-05-23T09:25:04;15.40;99.90
30399;DHT22;17195;50.838;7.214;2023-05-23T09:27:30;15.40;99.90
30399;DHT22;17195;50.838;7.214;2023-05-23T09:29:56;15.50;99.90
30399;DHT22;17195;50.838;7.214;2023-05-23T09:32:21;15.50;99.90
30399;DHT22;17195;50.838;7.214;2023-05-23T09:34:57;15.40;99.90
30399;DHT22;17195;50.838;7.214;2023-05-23T09:39:59;15.40;99.90
30399;DHT22;17195;50.838;7.214;2023-05-23T09:42:30;15.40;99.90
30399;DHT22;17195;50.838;7.214;2023-05-23T09:44:57;15.50;99.90
30399;DHT22;17195;50.838;7.214;2023-05-23T09:47:23;15.50;99.90
30399;DHT22;17195;50.838;7.214;2023-05-23T09:49:49;15.70;99.90
30399;DHT22;17195;50.838;7.214;2023-05-23T09:52:15;15.60;99.90
30399;DHT22;17195;50.838;7.214;2023-05-23T09:54:42;15.60;99.90
30399;DHT22;17195;50.838;7.214;2023-05-23T09:57:10;15.70;99.90
30399;DHT22;17195;50.838;7.214;2023-05-23T09:59:41;15.70;99.90
30399;DHT22;17195;50.838;7.214;2023-05-23T10:02:10;15.70;99.90
30399;DHT22;17195;50.838;7.214;2023-05-23T10:04:38;15.70;99.90
30399;DHT22;17195;50.838;7.214;2023-05-23T10:07:12;15.90;99.90
30399;DHT22;17195;50.838;7.214;2023-05-23T10:09:41;16.00;99.90
30399;DHT22;17195;50.838;7.214;2023-05-23T10:12:33;16.10;99.90
30399;DHT22;17195;50.838;7.214;2023-05-23T10:15:03;16.00;99.90
30399;DHT22;17195;50.838;7.214;2023-05-23T10:20:33;15.90;99.90
30399;DHT22;17195;50.838;7.214;2023-05-23T10:23:00;15.70;99.90
30399;DHT22;17195;50.838;7.214;2023-05-23T10:25:27;15.70;99.90
30399;DHT22;17195;50.838;7.214;2023-05-23T10:27:55;15.60;99.90
30399;DHT22;17195;50.838;7.214;2023-05-23T10:30:27;15.60;99.90
30399;DHT22;17195;50.838;7.214;2023-05-23T10:32:54;15.80;99.90
30399;DHT22;17195;50.838;7.214;2023-05-23T10:35:41;15.80;99.90
30399;DHT22;17195;50.838;7.214;2023-05-23T10:41:00;15.70;99.90
30399;DHT22;17195;50.838;7.214;2023-05-23T10:45:58;15.70;99.90
30399;DHT22;17195;50.838;7.214;2023-05-23T10:48:43;15.70;99.90
30399;DHT22;17195;50.838;7.214;2023-05-23T10:51:11;15.90;99.90
30399;DHT22;17195;50.838;7.214;2023-05-23T10:53:38;15.90;99.90
30399;DHT22;17195;50.838;7.214;2023-05-23T10:56:05;16.10;99.90
30399;DHT22;17195;50.838;7.214;2023-05-23T10:58:32;16.10;99.90
30399;DHT22;17195;50.838;7.214;2023-05-23T11:01:13;16.10;99.90
30399;DHT22;17195;50.838;7.214;2023-05-23T11:09:25;17.10;99.90
30399;DHT22;17195;50.838;7.214;2023-05-23T11:14:19;17.50;99.90
30399;DHT22;17195;50.838;7.214;2023-05-23T11:16:45;17.60;99.90
30399;DHT22;17195;50.838;7.214;2023-05-23T11:21:49;17.50;99.90
30399;DHT22;17195;50.838;7.214;2023-05-23T11:24:15;17.70;99.90
30399;DHT22;17195;50.838;7.214;2023-05-23T11:26:56;17.70;99.90
30399;DHT22;17195;50.838;7.214;2023-05-23T11:29:26;17.60;99.90
30399;DHT22;17195;50.838;7.214;2023-05-23T11:31:51;17.40;99.90
30399;DHT22;17195;50.838;7.214;2023-05-23T11:34:17;17.50;99.90
30399;DHT22;17195;50.838;7.214;2023-05-23T11:36:43;17.50;99.90
30399;DHT22;17195;50.838;7.214;2023-05-23T11:39:09;17.50;99.90
30399;DHT22;17195;50.838;7.214;2023-05-23T11:41:35;17.80;99.90
30399;DHT22;17195;50.838;7.214;2023-05-23T11:44:00;18.20;99.90
30399;DHT22;17195;50.838;7.214;2023-05-23T11:46:26;18.40;99.90
30399;DHT22;17195;50.838;7.214;2023-05-23T11:48:52;18.40;99.90
30399;DHT22;17195;50.838;7.214;2023-05-23T11:51:18;17.90;99.90
30399;DHT22;17195;50.838;7.214;2023-05-23T11:53:45;17.50;99.90
30399;DHT22;17195;50.838;7.214;2023-05-23T11:56:13;17.20;99.90
30399;DHT22;17195;50.838;7.214;2023-05-23T11:58:39;17.20;99.90
30399;DHT22;17195;50.838;7.214;2023-05-23T12:01:08;17.30;99.90
30399;DHT22;17195;50.838;7.214;2023-05-23T12:03:44;17.20;99.90
30399;DHT22;17195;50.838;7.214;2023-05-23T12:06:23;17.20;99.90
30399;DHT22;17195;50.838;7.214;2023-05-23T12:08:50;17.00;99.90
30399;DHT22;17195;50.838;7.214;2023-05-23T12:11:19;17.40;99.90
30399;DHT22;17195;50.838;7.214;2023-05-23T12:13:46;17.40;99.90
30399;DHT22;17195;50.838;7.214;2023-05-23T12:16:13;17.00;99.90
30399;DHT22;17195;50.838;7.214;2023-05-23T12:18:41;16.50;99.90
30399;DHT22;17195;50.838;7.214;2023-05-23T12:21:07;16.00;99.90
30399;DHT22;17195;50.838;7.214;2023-05-23T12:23:33;15.70;99.90
30399;DHT22;17195;50.838;7.214;2023-05-23T12:26:03;15.90;99.90
30399;DHT22;17195;50.838;7.214;2023-05-23T12:28:37;16.10;99.90
30399;DHT22;17195;50.838;7.214;2023-05-23T12:31:19;16.40;99.90
30399;DHT22;17195;50.838;7.214;2023-05-23T12:33:46;16.90;99.90
30399;DHT22;17195;50.838;7.214;2023-05-23T12:36:23;17.40;99.90
30399;DHT22;17195;50.838;7.214;2023-05-23T12:38:49;17.80;99.90
30399;DHT22;17195;50.838;7.214;2023-05-23T12:41:19;18.10;99.90
30399;DHT22;17195;50.838;7.214;2023-05-23T12:43:52;18.30;99.90
30399;DHT22;17195;50.838;7.214;2023-05-23T12:46:19;18.60;99.90
30399;DHT22;17195;50.838;7.214;2023-05-23T12:48:44;18.60;99.90
30399;DHT22;17195;50.838;7.214;2023-05-23T12:51:10;18.90;99.90
30399;DHT22;17195;50.838;7.214;2023-05-23T12:53:36;19.00;99.90
30399;DHT22;17195;50.838;7.214;2023-05-23T12:56:02;18.90;99.90
30399;DHT22;17195;50.838;7.214;2023-05-23T12:58:27;18.70;99.90
30399;DHT22;17195;50.838;7.214;2023-05-23T13:00:54;18.20;99.90
30399;DHT22;17195;50.838;7.214;2023-05-23T13:03:19;17.70;99.90
30399;DHT22;17195;50.838;7.214;2023-05-23T13:05:45;17.50;99.90
30399;DHT22;17195;50.838;7.214;2023-05-23T13:08:11;17.30;99.90
30399;DHT22;17195;50.838;7.214;2023-05-23T13:10:37;17.10;99.90
30399;DHT22;17195;50.838;7.214;2023-05-23T13:13:03;17.20;99.90
30399;DHT22;17195;50.838;7.214;2023-05-23T13:15:30;17.20;99.90
30399;DHT22;17195;50.838;7.214;2023-05-23T13:17:55;17.30;99.90
30399;DHT22;17195;50.838;7.214;2023-05-23T13:20:21;17.50;99.90
30399;DHT22;17195;50.838;7.214;2023-05-23T13:22:47;17.80;99.90
30399;DHT22;17195;50.838;7.214;2023-05-23T13:25:13;18.30;99.90
30399;DHT22;17195;50.838;7.214;2023-05-23T13:27:39;18.30;99.90
30399;DHT22;17195;50.838;7.214;2023-05-23T13:30:05;18.20;99.90
30399;DHT22;17195;50.838;7.214;2023-05-23T13:32:30;18.30;99.90
30399;DHT22;17195;50.838;7.214;2023-05-23T13:34:56;18.20;99.90
30399;DHT22;17195;50.838;7.214;2023-05-23T13:37:22;18.30;99.90
30399;DHT22;17195;50.838;7.214;2023-05-23T13:39:47;18.30;99.90
30399;DHT22;17195;50.838;7.214;2023-05-23T13:42:13;18.10;99.90
30399;DHT22;17195;50.838;7.214;2023-05-23T13:44:38;18.10;99.90
30399;DHT22;17195;50.838;7.214;2023-05-23T13:47:11;18.00;99.90
30399;DHT22;17195;50.838;7.214;2023-05-23T13:49:37;18.30;99.90
30399;DHT22;17195;50.838;7.214;2023-05-23T13:52:03;18.30;99.90
30399;DHT22;17195;50.838;7.214;2023-05-23T13:54:28;18.40;99.90
30399;DHT22;17195;50.838;7.214;2023-05-23T13:56:54;18.40;99.90
30399;DHT22;17195;50.838;7.214;2023-05-23T13:59:20;18.60;99.90
30399;DHT22;17195;50.838;7.214;2023-05-23T14:01:47;18.80;99.90
30399;DHT22;17195;50.838;7.214;2023-05-23T14:04:12;19.20;99.90
30399;DHT22;17195;50.838;7.214;2023-05-23T14:06:38;19.80;99.90
30399;DHT22;17195;50.838;7.214;2023-05-23T14:09:05;20.40;99.90
30399;DHT22;17195;50.838;7.214;2023-05-23T14:11:31;20.40;99.90
30399;DHT22;17195;50.838;7.214;2023-05-23T14:13:57;20.00;99.90
30399;DHT22;17195;50.838;7.214;2023-05-23T14:16:22;19.60;99.90
30399;DHT22;17195;50.838;7.214;2023-05-23T14:18:48;19.30;99.90
30399;DHT22;17195;50.838;7.214;2023-05-23T14:21:14;19.40;99.90
30399;DHT22;17195;50.838;7.214;2023-05-23T14:23:40;19.20;99.90
30399;DHT22;17195;50.838;7.214;2023-05-23T14:26:05;19.00;99.90
30399;DHT22;17195;50.838;7.214;2023-05-23T14:28:31;19.10;99.90
30399;DHT22;17195;50.838;7.214;2023-05-23T14:30:57;19.30;99.90
30399;DHT22;17195;50.838;7.214;2023-05-23T14:33:23;19.50;99.80
30399;DHT22;17195;50.838;7.214;2023-05-23T14:35:49;19.90;99.60
30399;DHT22;17195;50.838;7.214;2023-05-23T14:38:15;20.30;98.60
30399;DHT22;17195;50.838;7.214;2023-05-23T14:40:41;20.30;98.30
30399;DHT22;17195;50.838;7.214;2023-05-23T14:43:07;20.00;98.80
30399;DHT22;17195;50.838;7.214;2023-05-23T14:45:32;19.70;98.60
30399;DHT22;17195;50.838;7.214;2023-05-23T14:47:58;19.80;98.80
30399;DHT22;17195;50.838;7.214;2023-05-23T14:50:27;19.10;99.90
30399;DHT22;17195;50.838;7.214;2023-05-23T14:52:53;19.30;99.90
30399;DHT22;17195;50.838;7.214;2023-05-23T14:55:18;20.10;99.50
30399;DHT22;17195;50.838;7.214;2023-05-23T14:57:44;20.50;99.00
30399;DHT22;17195;50.838;7.214;2023-05-23T15:00:10;20.80;98.10
30399;DHT22;17195;50.838;7.214;2023-05-23T15:02:37;20.20;97.00
30399;DHT22;17195;50.838;7.214;2023-05-23T15:05:04;20.10;97.30
30399;DHT22;17195;50.838;7.214;2023-05-23T15:07:30;20.20;97.00
30399;DHT22;17195;50.838;7.214;2023-05-23T15:09:57;20.40;96.80
30399;DHT22;17195;50.838;7.214;2023-05-23T15:12:22;20.90;95.60
30399;DHT22;17195;50.838;7.214;2023-05-23T15:14:48;21.80;94.60
30399;DHT22;17195;50.838;7.214;2023-05-23T15:17:15;23.90;93.00
30399;DHT22;17195;50.838;7.214;2023-05-23T15:19:45;27.00;83.50
30399;DHT22;17195;50.838;7.214;2023-05-23T15:22:11;28.80;70.30
30399;DHT22;17195;50.838;7.214;2023-05-23T15:24:37;29.10;62.80
30399;DHT22;17195;50.838;7.214;2023-05-23T15:27:02;26.70;64.00
30399;DHT22;17195;50.838;7.214;2023-05-23T15:29:28;24.90;66.80
30399;DHT22;17195;50.838;7.214;2023-05-23T15:31:54;23.40;70.40
30399;DHT22;17195;50.838;7.214;2023-05-23T15:34:20;22.30;73.70
30399;DHT22;17195;50.838;7.214;2023-05-23T15:36:46;22.00;75.90
30399;DHT22;17195;50.838;7.214;2023-05-23T15:39:12;23.10;75.80
30399;DHT22;17195;50.838;7.214;2023-05-23T15:41:38;25.30;70.50
30399;DHT22;17195;50.838;7.214;2023-05-23T15:44:04;26.80;65.50
30399;DHT22;17195;50.838;7.214;2023-05-23T15:46:30;27.70;64.10
30399;DHT22;17195;50.838;7.214;2023-05-23T15:48:55;27.60;60.20
30399;DHT22;17195;50.838;7.214;2023-05-23T15:51:27;26.50;60.30
30399;DHT22;17195;50.838;7.214;2023-05-23T15:53:53;26.20;61.00
30399;DHT22;17195;50.838;7.214;2023-05-23T15:56:18;28.40;58.30
30399;DHT22;17195;50.838;7.214;2023-05-23T15:58:44;29.80;55.10